sensor_id;sensor_type;location;lat;lon;timestamp;P1;durP1;ratioP1;P2;durP2;ratioP2
27802;SDS011;15182;48.174;11.562;2023-12-14T00:01:15;2.80;;;2.80;;
27802;SDS011;15182;48.174;11.562;2023-12-14T00:03:42;2.77;;;2.77;;
27802;SDS011;15182;48.174;11.562;2023-12-14T00:06:11;2.70;;;2.57;;
27802;SDS011;15182;48.174;11.562;2023-12-14T00:08:40;2.60;;;2.60;;
27802;SDS011;15182;48.174;11.562;2023-12-14T00:11:08;2.70;;;2.50;;
27802;SDS011;15182;48.174;11.562;2023-12-14T00:13:38;2.43;;;2.43;;
27802;SDS011;15182;48.174;11.562;2023-12-14T00:16:07;2.60;;;2.60;;
27802;SDS011;15182;48.174;11.562;2023-12-14T00:18:36;2.50;;;2.50;;
27802;SDS011;15182;48.174;11.562;2023-12-14T00:21:04;2.57;;;2.57;;
27802;SDS011;15182;48.174;11.562;2023-12-14T00:23:33;2.77;;;2.67;;
27802;SDS011;15182;48.174;11.562;2023-12-14T00:26:01;2.60;;;2.60;;
27802;SDS011;15182;48.174;11.562;2023-12-14T00:28:29;2.90;;;2.90;;
27802;SDS011;15182;48.174;11.562;2023-12-14T00:30:56;2.30;;;2.30;;
27802;SDS011;15182;48.174;11.562;2023-12-14T00:33:26;2.93;;;2.93;;
27802;SDS011;15182;48.174;11.562;2023-12-14T00:35:54;2.47;;;2.47;;
27802;SDS011;15182;48.174;11.562;2023-12-14T00:38:21;2.87;;;2.87;;
27802;SDS011;15182;48.174;11.562;2023-12-14T00:40:49;2.60;;;2.60;;
27802;SDS011;15182;48.174;11.562;2023-12-14T00:43:17;2.77;;;2.60;;
27802;SDS011;15182;48.174;11.562;2023-12-14T00:45:45;3.20;;;3.10;;
27802;SDS011;15182;48.174;11.562;2023-12-14T00:48:13;2.80;;;2.77;;
27802;SDS011;15182;48.174;11.562;2023-12-14T00:50:42;2.90;;;2.70;;
27802;SDS011;15182;48.174;11.562;2023-12-14T00:53:09;2.07;;;2.07;;
27802;SDS011;15182;48.174;11.562;2023-12-14T00:55:37;2.10;;;2.10;;
27802;SDS011;15182;48.174;11.562;2023-12-14T00:58:05;2.37;;;2.27;;
27802;SDS011;15182;48.174;11.562;2023-12-14T01:00:33;2.83;;;2.83;;
27802;SDS011;15182;48.174;11.562;2023-12-14T01:03:01;2.63;;;2.53;;
27802;SDS011;15182;48.174;11.562;2023-12-14T01:05:29;2.57;;;2.57;;
27802;SDS011;15182;48.174;11.562;2023-12-14T01:07:58;2.63;;;2.63;;
27802;SDS011;15182;48.174;11.562;2023-12-14T01:10:26;3.10;;;3.10;;
27802;SDS011;15182;48.174;11.562;2023-12-14T01:12:54;2.77;;;2.77;;
27802;SDS011;15182;48.174;11.562;2023-12-14T01:15:21;5.40;;;2.70;;
27802;SDS011;15182;48.174;11.562;2023-12-14T01:17:49;2.33;;;2.33;;
27802;SDS011;15182;48.174;11.562;2023-12-14T01:20:17;2.63;;;2.53;;
27802;SDS011;15182;48.174;11.562;2023-12-14T01:22:45;2.80;;;2.70;;
27802;SDS011;15182;48.174;11.562;2023-12-14T01:25:14;4.43;;;2.60;;
27802;SDS011;15182;48.174;11.562;2023-12-14T01:27:42;2.63;;;2.47;;
27802;SDS011;15182;48.174;11.562;2023-12-14T01:30:10;2.40;;;2.40;;
27802;SDS011;15182;48.174;11.562;2023-12-14T01:32:38;2.60;;;2.60;;
27802;SDS011;15182;48.174;11.562;2023-12-14T01:35:06;2.67;;;2.67;;
27802;SDS011;15182;48.174;11.562;2023-12-14T01:37:35;2.40;;;2.40;;
27802;SDS011;15182;48.174;11.562;2023-12-14T01:40:03;2.40;;;2.40;;
27802;SDS011;15182;48.174;11.562;2023-12-14T01:42:33;2.80;;;2.80;;
27802;SDS011;15182;48.174;11.562;2023-12-14T01:45:01;2.27;;;2.27;;
27802;SDS011;15182;48.174;11.562;2023-12-14T01:47:30;2.43;;;2.43;;
27802;SDS011;15182;48.174;11.562;2023-12-14T01:49:57;2.77;;;2.67;;
27802;SDS011;15182;48.174;11.562;2023-12-14T01:52:25;2.93;;;2.67;;
27802;SDS011;15182;48.174;11.562;2023-12-14T01:54:53;2.40;;;2.40;;
27802;SDS011;15182;48.174;11.562;2023-12-14T01:57:24;2.60;;;2.50;;
27802;SDS011;15182;48.174;11.562;2023-12-14T01:59:53;2.90;;;2.80;;
27802;SDS011;15182;48.174;11.562;2023-12-14T02:02:21;2.60;;;2.50;;
27802;SDS011;15182;48.174;11.562;2023-12-14T02:04:49;2.70;;;2.70;;
27802;SDS011;15182;48.174;11.562;2023-12-14T02:07:17;2.27;;;2.27;;
27802;SDS011;15182;48.174;11.562;2023-12-14T02:09:45;2.33;;;2.33;;
27802;SDS011;15182;48.174;11.562;2023-12-14T02:12:12;2.60;;;2.60;;
27802;SDS011;15182;48.174;11.562;2023-12-14T02:14:40;2.33;;;2.33;;
27802;SDS011;15182;48.174;11.562;2023-12-14T02:17:09;2.30;;;2.30;;
27802;SDS011;15182;48.174;11.562;2023-12-14T02:19:37;2.60;;;2.60;;
27802;SDS011;15182;48.174;11.562;2023-12-14T02:22:05;3.03;;;2.83;;
27802;SDS011;15182;48.174;11.562;2023-12-14T02:24:34;2.10;;;2.10;;
27802;SDS011;15182;48.174;11.562;2023-12-14T02:27:02;2.10;;;2.10;;
27802;SDS011;15182;48.174;11.562;2023-12-14T02:29:30;2.63;;;2.53;;
27802;SDS011;15182;48.174;11.562;2023-12-14T02:31:58;2.40;;;2.40;;
27802;SDS011;15182;48.174;11.562;2023-12-14T02:34:25;2.43;;;2.43;;
27802;SDS011;15182;48.174;11.562;2023-12-14T02:36:53;2.60;;;2.60;;
27802;SDS011;15182;48.174;11.562;2023-12-14T02:39:21;2.40;;;2.40;;
27802;SDS011;15182;48.174;11.562;2023-12-14T02:41:49;2.33;;;2.33;;
27802;SDS011;15182;48.174;11.562;2023-12-14T02:44:17;2.30;;;2.30;;
27802;SDS011;15182;48.174;11.562;2023-12-14T02:46:45;2.80;;;2.70;;
27802;SDS011;15182;48.174;11.562;2023-12-14T02:49:12;2.70;;;2.70;;
27802;SDS011;15182;48.174;11.562;2023-12-14T02:51:40;2.77;;;2.77;;
27802;SDS011;15182;48.174;11.562;2023-12-14T02:54:08;2.87;;;2.87;;
27802;SDS011;15182;48.174;11.562;2023-12-14T02:56:36;3.20;;;3.20;;
27802;SDS011;15182;48.174;11.562;2023-12-14T02:59:05;2.80;;;2.80;;
27802;SDS011;15182;48.174;11.562;2023-12-14T03:01:33;3.33;;;3.23;;
27802;SDS011;15182;48.174;11.562;2023-12-14T03:04:01;3.00;;;3.00;;
27802;SDS011;15182;48.174;11.562;2023-12-14T03:06:28;3.27;;;3.27;;
27802;SDS011;15182;48.174;11.562;2023-12-14T03:08:56;2.90;;;2.90;;
27802;SDS011;15182;48.174;11.562;2023-12-14T03:11:24;3.20;;;3.10;;
27802;SDS011;15182;48.174;11.562;2023-12-14T03:13:52;3.20;;;3.20;;
27802;SDS011;15182;48.174;11.562;2023-12-14T03:16:21;3.20;;;3.20;;
27802;SDS011;15182;48.174;11.562;2023-12-14T03:18:49;3.60;;;3.60;;
27802;SDS011;15182;48.174;11.562;2023-12-14T03:21:19;3.63;;;3.57;;
27802;SDS011;15182;48.174;11.562;2023-12-14T03:23:47;3.53;;;3.33;;
27802;SDS011;15182;48.174;11.562;2023-12-14T03:26:14;3.40;;;3.40;;
27802;SDS011;15182;48.174;11.562;2023-12-14T03:28:42;3.40;;;3.40;;
27802;SDS011;15182;48.174;11.562;2023-12-14T03:31:10;3.57;;;3.47;;
27802;SDS011;15182;48.174;11.562;2023-12-14T03:33:41;3.60;;;3.60;;
27802;SDS011;15182;48.174;11.562;2023-12-14T03:36:09;3.60;;;3.50;;
27802;SDS011;15182;48.174;11.562;2023-12-14T03:38:37;3.60;;;3.60;;
27802;SDS011;15182;48.174;11.562;2023-12-14T03:41:05;3.10;;;3.10;;
27802;SDS011;15182;48.174;11.562;2023-12-14T03:43:33;3.50;;;3.50;;
27802;SDS011;15182;48.174;11.562;2023-12-14T03:46:00;3.60;;;3.40;;
27802;SDS011;15182;48.174;11.562;2023-12-14T03:48:28;3.47;;;3.47;;
27802;SDS011;15182;48.174;11.562;2023-12-14T03:50:57;3.60;;;3.60;;
27802;SDS011;15182;48.174;11.562;2023-12-14T03:53:29;3.20;;;3.20;;
27802;SDS011;15182;48.174;11.562;2023-12-14T03:55:58;3.23;;;3.23;;
27802;SDS011;15182;48.174;11.562;2023-12-14T03:58:27;3.40;;;3.40;;
27802;SDS011;15182;48.174;11.562;2023-12-14T04:00:54;3.23;;;3.03;;
27802;SDS011;15182;48.174;11.562;2023-12-14T04:03:22;3.40;;;3.40;;
27802;SDS011;15182;48.174;11.562;2023-12-14T04:05:50;3.43;;;3.43;;
27802;SDS011;15182;48.174;11.562;2023-12-14T04:08:20;3.43;;;3.43;;
27802;SDS011;15182;48.174;11.562;2023-12-14T04:10:47;3.57;;;3.47;;
27802;SDS011;15182;48.174;11.562;2023-12-14T04:13:15;2.90;;;2.90;;
27802;SDS011;15182;48.174;11.562;2023-12-14T04:15:43;3.20;;;3.20;;
27802;SDS011;15182;48.174;11.562;2023-12-14T04:18:11;3.20;;;3.10;;
27802;SDS011;15182;48.174;11.562;2023-12-14T04:20:39;2.83;;;2.83;;
27802;SDS011;15182;48.174;11.562;2023-12-14T04:23:07;2.93;;;2.93;;
27802;SDS011;15182;48.174;11.562;2023-12-14T04:25:36;2.83;;;2.83;;
27802;SDS011;15182;48.174;11.562;2023-12-14T04:28:04;2.60;;;2.60;;
27802;SDS011;15182;48.174;11.562;2023-12-14T04:30:30;3.50;;;3.30;;
27802;SDS011;15182;48.174;11.562;2023-12-14T04:32:58;3.00;;;3.00;;
27802;SDS011;15182;48.174;11.562;2023-12-14T04:35:27;3.00;;;3.00;;
27802;SDS011;15182;48.174;11.562;2023-12-14T04:37:55;3.13;;;3.13;;
27802;SDS011;15182;48.174;11.562;2023-12-14T04:40:22;3.30;;;3.30;;
27802;SDS011;15182;48.174;11.562;2023-12-14T04:42:52;3.20;;;3.10;;
27802;SDS011;15182;48.174;11.562;2023-12-14T04:45:20;3.30;;;3.30;;
27802;SDS011;15182;48.174;11.562;2023-12-14T04:47:47;2.90;;;2.90;;
27802;SDS011;15182;48.174;11.562;2023-12-14T04:50:16;3.13;;;3.13;;
27802;SDS011;15182;48.174;11.562;2023-12-14T04:52:43;3.10;;;3.10;;
27802;SDS011;15182;48.174;11.562;2023-12-14T04:55:11;2.87;;;2.87;;
27802;SDS011;15182;48.174;11.562;2023-12-14T04:57:39;3.40;;;3.40;;
27802;SDS011;15182;48.174;11.562;2023-12-14T05:00:09;3.20;;;3.00;;
27802;SDS011;15182;48.174;11.562;2023-12-14T05:02:38;2.80;;;2.80;;
27802;SDS011;15182;48.174;11.562;2023-12-14T05:05:06;3.13;;;3.13;;
27802;SDS011;15182;48.174;11.562;2023-12-14T05:07:34;2.70;;;2.70;;
27802;SDS011;15182;48.174;11.562;2023-12-14T05:10:02;2.87;;;2.87;;
27802;SDS011;15182;48.174;11.562;2023-12-14T05:12:31;2.50;;;2.50;;
27802;SDS011;15182;48.174;11.562;2023-12-14T05:14:59;2.97;;;2.97;;
27802;SDS011;15182;48.174;11.562;2023-12-14T05:17:28;2.77;;;2.77;;
27802;SDS011;15182;48.174;11.562;2023-12-14T05:19:56;3.10;;;3.10;;
27802;SDS011;15182;48.174;11.562;2023-12-14T05:22:24;2.60;;;2.60;;
27802;SDS011;15182;48.174;11.562;2023-12-14T05:24:53;2.90;;;2.80;;
27802;SDS011;15182;48.174;11.562;2023-12-14T05:27:21;2.80;;;2.80;;
27802;SDS011;15182;48.174;11.562;2023-12-14T05:29:49;3.03;;;3.03;;
27802;SDS011;15182;48.174;11.562;2023-12-14T05:32:16;2.93;;;2.93;;
27802;SDS011;15182;48.174;11.562;2023-12-14T05:34:46;2.73;;;2.73;;
27802;SDS011;15182;48.174;11.562;2023-12-14T05:37:14;3.07;;;2.87;;
27802;SDS011;15182;48.174;11.562;2023-12-14T05:39:42;2.80;;;2.80;;
27802;SDS011;15182;48.174;11.562;2023-12-14T05:42:11;2.83;;;2.83;;
27802;SDS011;15182;48.174;11.562;2023-12-14T05:44:39;2.87;;;2.87;;
27802;SDS011;15182;48.174;11.562;2023-12-14T05:47:08;2.90;;;2.90;;
27802;SDS011;15182;48.174;11.562;2023-12-14T05:49:36;3.20;;;3.10;;
27802;SDS011;15182;48.174;11.562;2023-12-14T05:52:09;3.00;;;3.00;;
27802;SDS011;15182;48.174;11.562;2023-12-14T05:54:37;3.00;;;2.97;;
27802;SDS011;15182;48.174;11.562;2023-12-14T05:57:05;3.60;;;3.60;;
27802;SDS011;15182;48.174;11.562;2023-12-14T05:59:33;3.00;;;3.00;;
27802;SDS011;15182;48.174;11.562;2023-12-14T06:02:01;2.80;;;2.80;;
27802;SDS011;15182;48.174;11.562;2023-12-14T06:04:29;3.43;;;3.27;;
27802;SDS011;15182;48.174;11.562;2023-12-14T06:06:57;2.77;;;2.77;;
27802;SDS011;15182;48.174;11.562;2023-12-14T06:09:26;2.90;;;2.90;;
27802;SDS011;15182;48.174;11.562;2023-12-14T06:11:59;3.17;;;3.07;;
27802;SDS011;15182;48.174;11.562;2023-12-14T06:14:27;3.33;;;3.27;;
27802;SDS011;15182;48.174;11.562;2023-12-14T06:16:55;3.47;;;3.27;;
27802;SDS011;15182;48.174;11.562;2023-12-14T06:19:24;3.00;;;3.00;;
27802;SDS011;15182;48.174;11.562;2023-12-14T06:21:52;3.60;;;3.50;;
27802;SDS011;15182;48.174;11.562;2023-12-14T06:24:20;3.37;;;3.27;;
27802;SDS011;15182;48.174;11.562;2023-12-14T06:26:49;3.60;;;3.50;;
27802;SDS011;15182;48.174;11.562;2023-12-14T06:29:17;3.37;;;3.37;;
27802;SDS011;15182;48.174;11.562;2023-12-14T06:31:45;3.53;;;3.43;;
27802;SDS011;15182;48.174;11.562;2023-12-14T06:34:13;3.43;;;3.43;;
27802;SDS011;15182;48.174;11.562;2023-12-14T06:36:41;3.70;;;3.60;;
27802;SDS011;15182;48.174;11.562;2023-12-14T06:39:11;3.40;;;3.40;;
27802;SDS011;15182;48.174;11.562;2023-12-14T06:41:39;3.40;;;3.30;;
27802;SDS011;15182;48.174;11.562;2023-12-14T06:44:08;4.07;;;3.97;;
27802;SDS011;15182;48.174;11.562;2023-12-14T06:46:36;3.40;;;3.40;;
27802;SDS011;15182;48.174;11.562;2023-12-14T06:49:04;4.83;;;4.00;;
27802;SDS011;15182;48.174;11.562;2023-12-14T06:51:31;4.20;;;3.70;;
27802;SDS011;15182;48.174;11.562;2023-12-14T06:53:59;3.90;;;3.80;;
27802;SDS011;15182;48.174;11.562;2023-12-14T06:56:27;3.53;;;3.53;;
27802;SDS011;15182;48.174;11.562;2023-12-14T06:58:55;3.73;;;3.63;;
27802;SDS011;15182;48.174;11.562;2023-12-14T07:01:24;4.30;;;3.90;;
27802;SDS011;15182;48.174;11.562;2023-12-14T07:03:52;4.23;;;4.07;;
27802;SDS011;15182;48.174;11.562;2023-12-14T07:06:20;3.70;;;3.70;;
27802;SDS011;15182;48.174;11.562;2023-12-14T07:08:48;3.73;;;3.57;;
27802;SDS011;15182;48.174;11.562;2023-12-14T07:11:16;3.83;;;3.73;;
27802;SDS011;15182;48.174;11.562;2023-12-14T07:13:44;3.93;;;3.83;;
27802;SDS011;15182;48.174;11.562;2023-12-14T07:16:13;4.53;;;4.33;;
27802;SDS011;15182;48.174;11.562;2023-12-14T07:18:44;4.00;;;3.90;;
27802;SDS011;15182;48.174;11.562;2023-12-14T07:21:12;6.40;;;3.70;;
27802;SDS011;15182;48.174;11.562;2023-12-14T07:23:40;3.90;;;3.77;;
27802;SDS011;15182;48.174;11.562;2023-12-14T07:26:08;3.93;;;3.70;;
27802;SDS011;15182;48.174;11.562;2023-12-14T07:28:36;4.03;;;3.83;;
27802;SDS011;15182;48.174;11.562;2023-12-14T07:31:04;4.10;;;4.00;;
27802;SDS011;15182;48.174;11.562;2023-12-14T07:33:32;4.50;;;3.57;;
27802;SDS011;15182;48.174;11.562;2023-12-14T07:36:02;4.13;;;3.70;;
27802;SDS011;15182;48.174;11.562;2023-12-14T07:38:32;4.40;;;4.10;;
27802;SDS011;15182;48.174;11.562;2023-12-14T07:40:59;3.83;;;3.73;;
27802;SDS011;15182;48.174;11.562;2023-12-14T07:43:27;4.33;;;4.23;;
27802;SDS011;15182;48.174;11.562;2023-12-14T07:45:55;4.37;;;4.17;;
27802;SDS011;15182;48.174;11.562;2023-12-14T07:48:23;4.53;;;4.20;;
27802;SDS011;15182;48.174;11.562;2023-12-14T07:50:50;5.10;;;4.60;;
27802;SDS011;15182;48.174;11.562;2023-12-14T07:53:20;4.07;;;3.97;;
27802;SDS011;15182;48.174;11.562;2023-12-14T07:55:47;4.07;;;3.93;;
27802;SDS011;15182;48.174;11.562;2023-12-14T07:58:15;4.03;;;3.93;;
27802;SDS011;15182;48.174;11.562;2023-12-14T08:00:43;4.97;;;4.60;;
27802;SDS011;15182;48.174;11.562;2023-12-14T08:03:11;4.47;;;4.27;;
27802;SDS011;15182;48.174;11.562;2023-12-14T08:05:38;5.17;;;4.77;;
27802;SDS011;15182;48.174;11.562;2023-12-14T08:08:06;4.47;;;4.30;;
27802;SDS011;15182;48.174;11.562;2023-12-14T08:10:35;5.07;;;4.87;;
27802;SDS011;15182;48.174;11.562;2023-12-14T08:13:03;5.77;;;4.50;;
27802;SDS011;15182;48.174;11.562;2023-12-14T08:15:31;4.87;;;4.63;;
27802;SDS011;15182;48.174;11.562;2023-12-14T08:17:59;4.43;;;4.33;;
27802;SDS011;15182;48.174;11.562;2023-12-14T08:20:27;5.57;;;5.17;;
27802;SDS011;15182;48.174;11.562;2023-12-14T08:22:55;5.30;;;5.03;;
27802;SDS011;15182;48.174;11.562;2023-12-14T08:25:23;5.00;;;4.60;;
27802;SDS011;15182;48.174;11.562;2023-12-14T08:27:52;5.30;;;5.10;;
27802;SDS011;15182;48.174;11.562;2023-12-14T08:30:20;5.17;;;4.97;;
27802;SDS011;15182;48.174;11.562;2023-12-14T08:32:49;5.60;;;5.20;;
27802;SDS011;15182;48.174;11.562;2023-12-14T08:35:17;5.27;;;4.63;;
27802;SDS011;15182;48.174;11.562;2023-12-14T08:37:45;5.10;;;4.80;;
27802;SDS011;15182;48.174;11.562;2023-12-14T08:40:13;5.47;;;5.17;;
27802;SDS011;15182;48.174;11.562;2023-12-14T08:42:41;5.83;;;5.53;;
27802;SDS011;15182;48.174;11.562;2023-12-14T08:45:10;5.97;;;5.67;;
27802;SDS011;15182;48.174;11.562;2023-12-14T08:47:38;5.37;;;5.07;;
27802;SDS011;15182;48.174;11.562;2023-12-14T08:50:06;5.57;;;5.07;;
27802;SDS011;15182;48.174;11.562;2023-12-14T08:52:35;5.47;;;5.27;;
27802;SDS011;15182;48.174;11.562;2023-12-14T08:55:03;5.13;;;5.03;;
27802;SDS011;15182;48.174;11.562;2023-12-14T08:57:31;5.33;;;5.03;;
27802;SDS011;15182;48.174;11.562;2023-12-14T08:59:59;6.00;;;5.70;;
27802;SDS011;15182;48.174;11.562;2023-12-14T09:02:31;4.50;;;4.30;;
27802;SDS011;15182;48.174;11.562;2023-12-14T09:04:59;5.50;;;5.10;;
27802;SDS011;15182;48.174;11.562;2023-12-14T09:07:27;5.87;;;4.90;;
27802;SDS011;15182;48.174;11.562;2023-12-14T09:09:55;5.07;;;4.87;;
27802;SDS011;15182;48.174;11.562;2023-12-14T09:12:23;4.83;;;4.63;;
27802;SDS011;15182;48.174;11.562;2023-12-14T09:14:50;5.33;;;5.13;;
27802;SDS011;15182;48.174;11.562;2023-12-14T09:17:18;5.53;;;5.23;;
27802;SDS011;15182;48.174;11.562;2023-12-14T09:19:47;5.30;;;5.10;;
27802;SDS011;15182;48.174;11.562;2023-12-14T09:22:15;5.67;;;5.17;;
27802;SDS011;15182;48.174;11.562;2023-12-14T09:24:43;4.80;;;4.60;;
27802;SDS011;15182;48.174;11.562;2023-12-14T09:27:11;5.00;;;4.80;;
27802;SDS011;15182;48.174;11.562;2023-12-14T09:29:39;4.97;;;4.77;;
27802;SDS011;15182;48.174;11.562;2023-12-14T09:32:07;5.17;;;4.77;;
27802;SDS011;15182;48.174;11.562;2023-12-14T09:34:35;4.50;;;4.40;;
27802;SDS011;15182;48.174;11.562;2023-12-14T09:37:04;4.50;;;4.30;;
27802;SDS011;15182;48.174;11.562;2023-12-14T09:39:32;4.37;;;4.27;;
27802;SDS011;15182;48.174;11.562;2023-12-14T09:42:03;4.83;;;4.63;;
27802;SDS011;15182;48.174;11.562;2023-12-14T09:44:33;4.53;;;4.33;;
27802;SDS011;15182;48.174;11.562;2023-12-14T09:47:02;5.67;;;4.43;;
27802;SDS011;15182;48.174;11.562;2023-12-14T09:49:30;5.00;;;4.70;;
27802;SDS011;15182;48.174;11.562;2023-12-14T09:51:59;3.77;;;3.67;;
27802;SDS011;15182;48.174;11.562;2023-12-14T09:54:28;4.50;;;4.40;;
27802;SDS011;15182;48.174;11.562;2023-12-14T09:56:56;3.73;;;3.63;;
27802;SDS011;15182;48.174;11.562;2023-12-14T09:59:24;3.87;;;3.77;;
27802;SDS011;15182;48.174;11.562;2023-12-14T10:01:52;3.83;;;3.77;;
27802;SDS011;15182;48.174;11.562;2023-12-14T10:04:20;4.20;;;4.10;;
27802;SDS011;15182;48.174;11.562;2023-12-14T10:06:49;4.50;;;4.23;;
27802;SDS011;15182;48.174;11.562;2023-12-14T10:09:22;4.30;;;4.20;;
27802;SDS011;15182;48.174;11.562;2023-12-14T10:12:01;4.03;;;3.93;;
27802;SDS011;15182;48.174;11.562;2023-12-14T10:14:32;4.03;;;3.93;;
27802;SDS011;15182;48.174;11.562;2023-12-14T10:17:13;4.13;;;4.03;;
27802;SDS011;15182;48.174;11.562;2023-12-14T10:19:43;4.53;;;4.30;;
27802;SDS011;15182;48.174;11.562;2023-12-14T10:22:13;4.50;;;4.30;;
27802;SDS011;15182;48.174;11.562;2023-12-14T10:24:43;4.23;;;4.03;;
27802;SDS011;15182;48.174;11.562;2023-12-14T10:27:13;4.70;;;4.50;;
27802;SDS011;15182;48.174;11.562;2023-12-14T10:29:41;5.10;;;4.90;;
27802;SDS011;15182;48.174;11.562;2023-12-14T10:32:10;4.93;;;4.73;;
27802;SDS011;15182;48.174;11.562;2023-12-14T10:34:38;4.93;;;4.37;;
27802;SDS011;15182;48.174;11.562;2023-12-14T10:37:06;4.33;;;3.93;;
27802;SDS011;15182;48.174;11.562;2023-12-14T10:39:35;4.80;;;4.63;;
27802;SDS011;15182;48.174;11.562;2023-12-14T10:42:04;4.90;;;4.73;;
27802;SDS011;15182;48.174;11.562;2023-12-14T10:44:37;4.33;;;4.17;;
27802;SDS011;15182;48.174;11.562;2023-12-14T10:47:05;4.00;;;3.90;;
27802;SDS011;15182;48.174;11.562;2023-12-14T10:49:34;3.50;;;3.40;;
27802;SDS011;15182;48.174;11.562;2023-12-14T10:52:03;3.50;;;3.40;;
27802;SDS011;15182;48.174;11.562;2023-12-14T10:54:33;5.70;;;3.20;;
27802;SDS011;15182;48.174;11.562;2023-12-14T10:57:05;3.67;;;3.37;;
27802;SDS011;15182;48.174;11.562;2023-12-14T10:59:34;3.23;;;3.13;;
27802;SDS011;15182;48.174;11.562;2023-12-14T11:02:07;3.60;;;3.50;;
27802;SDS011;15182;48.174;11.562;2023-12-14T11:04:53;3.70;;;3.60;;
27802;SDS011;15182;48.174;11.562;2023-12-14T11:10:26;3.80;;;3.70;;
27802;SDS011;15182;48.174;11.562;2023-12-14T11:12:56;3.90;;;3.80;;
27802;SDS011;15182;48.174;11.562;2023-12-14T11:15:30;4.30;;;4.20;;
27802;SDS011;15182;48.174;11.562;2023-12-14T11:18:20;4.80;;;4.60;;
27802;SDS011;15182;48.174;11.562;2023-12-14T11:20:55;5.13;;;4.63;;
27802;SDS011;15182;48.174;11.562;2023-12-14T11:23:27;4.90;;;4.70;;
27802;SDS011;15182;48.174;11.562;2023-12-14T11:25:57;4.70;;;4.50;;
27802;SDS011;15182;48.174;11.562;2023-12-14T11:28:29;4.80;;;4.60;;
27802;SDS011;15182;48.174;11.562;2023-12-14T11:30:59;5.10;;;4.70;;
27802;SDS011;15182;48.174;11.562;2023-12-14T11:33:32;4.30;;;4.20;;
27802;SDS011;15182;48.174;11.562;2023-12-14T11:36:01;4.33;;;4.23;;
27802;SDS011;15182;48.174;11.562;2023-12-14T11:38:30;4.13;;;4.03;;
27802;SDS011;15182;48.174;11.562;2023-12-14T11:40:58;4.77;;;4.57;;
27802;SDS011;15182;48.174;11.562;2023-12-14T11:43:26;4.33;;;4.23;;
27802;SDS011;15182;48.174;11.562;2023-12-14T11:45:55;4.50;;;4.40;;
27802;SDS011;15182;48.174;11.562;2023-12-14T11:48:24;4.60;;;4.40;;
27802;SDS011;15182;48.174;11.562;2023-12-14T11:50:52;4.57;;;4.20;;
27802;SDS011;15182;48.174;11.562;2023-12-14T11:53:20;3.90;;;3.80;;
27802;SDS011;15182;48.174;11.562;2023-12-14T11:55:48;3.63;;;3.57;;
27802;SDS011;15182;48.174;11.562;2023-12-14T11:58:16;4.17;;;4.07;;
27802;SDS011;15182;48.174;11.562;2023-12-14T12:00:44;3.40;;;3.37;;
27802;SDS011;15182;48.174;11.562;2023-12-14T12:03:13;3.73;;;3.67;;
27802;SDS011;15182;48.174;11.562;2023-12-14T12:05:45;3.43;;;3.20;;
27802;SDS011;15182;48.174;11.562;2023-12-14T12:08:16;3.50;;;3.40;;
27802;SDS011;15182;48.174;11.562;2023-12-14T12:10:45;2.97;;;2.97;;
27802;SDS011;15182;48.174;11.562;2023-12-14T12:13:15;3.17;;;3.17;;
27802;SDS011;15182;48.174;11.562;2023-12-14T12:15:46;2.93;;;2.93;;
27802;SDS011;15182;48.174;11.562;2023-12-14T12:18:15;3.20;;;3.20;;
27802;SDS011;15182;48.174;11.562;2023-12-14T12:20:45;3.20;;;3.20;;
27802;SDS011;15182;48.174;11.562;2023-12-14T12:23:13;3.37;;;3.17;;
27802;SDS011;15182;48.174;11.562;2023-12-14T12:25:42;3.60;;;3.33;;
27802;SDS011;15182;48.174;11.562;2023-12-14T12:28:09;3.80;;;3.70;;
27802;SDS011;15182;48.174;11.562;2023-12-14T12:30:37;3.30;;;3.30;;
27802;SDS011;15182;48.174;11.562;2023-12-14T12:33:05;3.33;;;3.33;;
27802;SDS011;15182;48.174;11.562;2023-12-14T12:35:33;3.53;;;3.43;;
27802;SDS011;15182;48.174;11.562;2023-12-14T12:38:02;3.47;;;3.37;;
27802;SDS011;15182;48.174;11.562;2023-12-14T12:40:30;3.43;;;3.40;;
27802;SDS011;15182;48.174;11.562;2023-12-14T12:42:59;3.30;;;3.20;;
27802;SDS011;15182;48.174;11.562;2023-12-14T12:45:27;3.23;;;3.23;;
27802;SDS011;15182;48.174;11.562;2023-12-14T12:47:55;3.60;;;3.50;;
27802;SDS011;15182;48.174;11.562;2023-12-14T12:50:23;3.63;;;3.53;;
27802;SDS011;15182;48.174;11.562;2023-12-14T12:52:51;3.27;;;3.17;;
27802;SDS011;15182;48.174;11.562;2023-12-14T12:55:20;3.67;;;3.47;;
27802;SDS011;15182;48.174;11.562;2023-12-14T12:57:48;3.73;;;3.50;;
27802;SDS011;15182;48.174;11.562;2023-12-14T13:00:16;3.63;;;3.53;;
27802;SDS011;15182;48.174;11.562;2023-12-14T13:02:45;3.83;;;3.63;;
27802;SDS011;15182;48.174;11.562;2023-12-14T13:05:13;2.90;;;2.90;;
27802;SDS011;15182;48.174;11.562;2023-12-14T13:07:44;3.40;;;3.40;;
27802;SDS011;15182;48.174;11.562;2023-12-14T13:10:13;3.50;;;3.43;;
27802;SDS011;15182;48.174;11.562;2023-12-14T13:12:42;3.00;;;3.00;;
27802;SDS011;15182;48.174;11.562;2023-12-14T13:15:10;3.20;;;3.10;;
27802;SDS011;15182;48.174;11.562;2023-12-14T13:17:37;2.90;;;2.90;;
27802;SDS011;15182;48.174;11.562;2023-12-14T13:20:06;3.20;;;3.10;;
27802;SDS011;15182;48.174;11.562;2023-12-14T13:22:34;3.67;;;3.40;;
27802;SDS011;15182;48.174;11.562;2023-12-14T13:25:02;3.07;;;3.07;;
27802;SDS011;15182;48.174;11.562;2023-12-14T13:27:31;3.47;;;3.37;;
27802;SDS011;15182;48.174;11.562;2023-12-14T13:30:03;3.20;;;3.20;;
27802;SDS011;15182;48.174;11.562;2023-12-14T13:32:34;3.27;;;3.17;;
27802;SDS011;15182;48.174;11.562;2023-12-14T13:35:02;3.40;;;3.30;;
27802;SDS011;15182;48.174;11.562;2023-12-14T13:37:31;3.33;;;3.33;;
27802;SDS011;15182;48.174;11.562;2023-12-14T13:39:59;3.23;;;3.23;;
27802;SDS011;15182;48.174;11.562;2023-12-14T13:42:27;2.97;;;2.97;;
27802;SDS011;15182;48.174;11.562;2023-12-14T13:44:54;3.37;;;3.10;;
27802;SDS011;15182;48.174;11.562;2023-12-14T13:47:23;3.03;;;2.93;;
27802;SDS011;15182;48.174;11.562;2023-12-14T13:49:51;3.27;;;3.17;;
27802;SDS011;15182;48.174;11.562;2023-12-14T13:52:20;3.03;;;3.03;;
27802;SDS011;15182;48.174;11.562;2023-12-14T13:54:47;3.03;;;3.00;;
27802;SDS011;15182;48.174;11.562;2023-12-14T13:57:15;3.10;;;3.10;;
27802;SDS011;15182;48.174;11.562;2023-12-14T13:59:43;3.73;;;3.53;;
27802;SDS011;15182;48.174;11.562;2023-12-14T14:02:11;2.80;;;2.80;;
27802;SDS011;15182;48.174;11.562;2023-12-14T14:04:40;3.33;;;3.13;;
27802;SDS011;15182;48.174;11.562;2023-12-14T14:07:08;3.20;;;3.20;;
27802;SDS011;15182;48.174;11.562;2023-12-14T14:09:36;3.23;;;3.20;;
27802;SDS011;15182;48.174;11.562;2023-12-14T14:12:03;3.30;;;3.20;;
27802;SDS011;15182;48.174;11.562;2023-12-14T14:14:32;3.03;;;3.03;;
27802;SDS011;15182;48.174;11.562;2023-12-14T14:17:00;3.00;;;3.00;;
27802;SDS011;15182;48.174;11.562;2023-12-14T14:19:28;3.10;;;3.00;;
27802;SDS011;15182;48.174;11.562;2023-12-14T14:21:57;3.43;;;3.33;;
27802;SDS011;15182;48.174;11.562;2023-12-14T14:24:25;3.80;;;3.60;;
27802;SDS011;15182;48.174;11.562;2023-12-14T14:26:52;3.00;;;3.00;;
27802;SDS011;15182;48.174;11.562;2023-12-14T14:29:20;2.80;;;2.70;;
27802;SDS011;15182;48.174;11.562;2023-12-14T14:31:48;3.90;;;3.70;;
27802;SDS011;15182;48.174;11.562;2023-12-14T14:34:16;3.10;;;3.00;;
27802;SDS011;15182;48.174;11.562;2023-12-14T14:36:43;3.70;;;3.50;;
27802;SDS011;15182;48.174;11.562;2023-12-14T14:39:13;3.20;;;3.20;;
27802;SDS011;15182;48.174;11.562;2023-12-14T14:41:44;3.40;;;3.30;;
27802;SDS011;15182;48.174;11.562;2023-12-14T14:44:12;3.30;;;3.20;;